Time;durP1;ratioP1;P1;durP2;ratioP2;P2;SDS_P1;SDS_P2;PMS_P1;PMS_P2;Temp;Humidity;BMP_temperature;BMP_pressure;BME280_temperature;BME280_humidity;BME280_pressure;Samples;Min_cycle;Max_cycle;Signal;HPM_P1;HPM_P2
2023/05/13 00:02:26;;;;;;;6.27;5.70;;;17.90;55.10;;;20.59;40.41;102027.47;5055437;28;20212;-67
2023/05/13 00:04:53;;;;;;;6.37;5.73;;;17.90;55.20;;;20.55;40.52;102021.72;5055314;28;20205;-67
2023/05/13 00:07:20;;;;;;;6.07;5.57;;;17.90;55.40;;;20.54;40.74;102035.31;5054945;28;20190;-66
2023/05/13 00:09:47;;;;;;;7.43;5.83;;;17.90;55.70;;;20.51;40.80;102031.22;5054290;28;20197;-67
2023/05/13 00:12:14;;;;;;;6.03;5.43;;;17.80;55.70;;;20.48;40.57;102033.47;5055379;28;20232;-66
2023/05/13 00:14:40;;;;;;;6.33;5.10;;;17.80;55.90;;;20.41;41.17;102024.63;5055066;28;20235;-67
2023/05/13 00:17:07;;;;;;;5.60;5.10;;;17.70;56.20;;;20.37;40.86;102028.75;5055431;28;20605;-67
2023/05/13 00:19:36;;;;;;;5.10;4.70;;;17.70;56.30;;;20.33;41.39;102030.16;5054903;28;20189;-67
2023/05/13 00:22:03;;;;;;;6.03;4.57;;;17.60;56.50;;;20.28;41.33;102036.16;5055050;28;20186;-67
2023/05/13 00:24:30;;;;;;;6.07;5.50;;;17.60;56.80;;;20.25;42.01;102036.56;5054768;28;20216;-67
2023/05/13 00:26:57;;;;;;;5.37;4.93;;;17.60;57.10;;;20.24;42.21;102032.25;5054631;28;20189;-66
2023/05/13 00:29:24;;;;;;;6.30;5.70;;;17.60;57.30;;;20.23;41.99;102030.59;5055278;28;20659;-67
2023/05/13 00:31:51;;;;;;;6.20;5.47;;;17.60;57.30;;;20.22;42.10;102035.13;5054907;28;20670;-67
2023/05/13 00:34:18;;;;;;;8.27;5.00;;;17.60;57.50;;;20.19;41.94;102027.50;5054510;28;20213;-66
2023/05/13 00:36:46;;;;;;;6.40;5.30;;;17.50;57.80;;;20.11;41.98;102032.22;5054761;28;20218;-66
2023/05/13 00:39:13;;;;;;;6.07;5.57;;;17.50;57.20;;;20.06;41.91;102032.81;5054039;28;20604;-67
2023/05/13 00:41:40;;;;;;;7.20;4.83;;;17.40;57.50;;;20.03;42.06;102024.41;5043281;28;20210;-67
2023/05/13 00:44:07;;;;;;;6.43;5.47;;;17.40;57.70;;;20.01;42.04;102023.78;5050253;28;20678;-66
2023/05/13 00:46:34;;;;;;;6.47;5.73;;;17.40;58.00;;;19.96;42.33;102020.91;5034993;28;20187;-67
2023/05/13 00:49:03;;;;;;;6.33;5.67;;;17.30;58.00;;;19.92;42.07;102030.38;5034951;28;20237;-67
2023/05/13 00:51:31;;;;;;;5.43;4.93;;;17.30;58.20;;;19.86;42.66;102023.97;5034686;28;20194;-67
2023/05/13 00:53:59;;;;;;;6.80;5.40;;;17.20;58.30;;;19.79;42.47;102020.47;5034713;28;20690;-67
2023/05/13 00:56:26;;;;;;;6.00;5.33;;;17.10;58.30;;;19.77;42.53;102022.53;5034704;28;20210;-67
2023/05/13 00:58:53;;;;;;;8.73;5.50;;;17.10;58.80;;;19.75;42.85;102023.75;5034769;28;20252;-67
2023/05/13 01:01:30;;;;;;;8.13;6.30;;;17.10;59.00;;;19.72;42.75;102018.81;5034788;28;20191;-67
2023/05/13 01:04:12;;;;;;;6.87;5.70;;;17.00;59.00;;;19.65;42.53;102024.16;5034292;28;20222;-67
2023/05/13 01:06:53;;;;;;;7.43;5.93;;;17.00;58.90;;;19.56;42.47;102025.38;5034314;28;20217;-66
2023/05/13 01:09:32;;;;;;;6.10;5.60;;;16.90;59.00;;;19.49;42.86;102029.88;5034760;28;20186;-66
2023/05/13 01:12:07;;;;;;;6.90;6.20;;;16.90;59.30;;;19.40;43.03;102037.22;5034191;28;20249;-67
2023/05/13 01:14:44;;;;;;;7.17;5.90;;;16.80;59.70;;;19.34;43.27;102034.50;5054090;28;20267;-67
2023/05/13 01:17:17;;;;;;;7.60;6.43;;;16.70;59.60;;;19.25;43.26;102033.03;5054211;28;20263;-66
2023/05/13 01:19:53;;;;;;;9.00;6.10;;;16.60;59.70;;;19.17;43.26;102033.19;5053932;28;20545;-66
2023/05/13 01:22:21;;;;;;;6.90;6.20;;;16.50;60.40;;;19.09;43.96;102033.38;5052660;28;20193;-66
2023/05/13 01:24:49;;;;;;;6.73;6.13;;;16.50;61.20;;;19.04;44.45;102027.81;5053745;28;20275;-66
2023/05/13 01:27:16;;;;;;;6.67;5.93;;;16.40;61.70;;;19.02;44.68;102038.66;5053733;28;20554;-67
2023/05/13 01:29:44;;;;;;;7.17;6.47;;;16.40;62.00;;;19.01;44.43;102041.53;5053739;28;20197;-66
2023/05/13 01:32:12;;;;;;;7.53;6.47;;;16.30;62.00;;;18.97;44.26;102041.09;5053472;28;20259;-65
2023/05/13 01:34:41;;;;;;;8.27;6.63;;;16.30;62.00;;;18.94;44.34;102044.97;5053547;28;20217;-66
2023/05/13 01:37:08;;;;;;;6.83;5.73;;;16.20;62.10;;;18.87;44.57;102046.78;5053531;28;20221;-66
2023/05/13 01:39:37;;;;;;;8.23;6.70;;;16.20;62.30;;;18.83;44.54;102040.22;5053458;28;20190;-65
2023/05/13 01:42:05;;;;;;;6.87;6.27;;;16.20;62.80;;;18.76;44.63;102039.34;5053483;28;20205;-66
2023/05/13 01:44:32;;;;;;;8.43;6.67;;;16.10;62.60;;;18.71;44.71;102052.44;5053281;28;20668;-66
2023/05/13 01:46:59;;;;;;;6.90;6.20;;;16.00;62.70;;;18.65;44.65;102045.22;5053678;28;20247;-66
2023/05/13 01:49:26;;;;;;;7.10;6.40;;;16.00;62.80;;;18.58;44.81;102046.19;5053345;28;20662;-66
2023/05/13 01:51:53;;;;;;;7.53;6.60;;;15.90;63.10;;;18.52;45.09;102047.78;5053584;28;20554;-66
2023/05/13 01:54:20;;;;;;;7.37;6.47;;;15.90;63.50;;;18.46;45.15;102050.41;5053180;28;20630;-65
2023/05/13 01:56:48;;;;;;;7.20;6.43;;;15.80;63.70;;;18.40;45.25;102046.63;5053155;28;20232;-66
2023/05/13 01:59:15;;;;;;;7.63;6.67;;;15.70;64.50;;;18.33;45.21;102043.09;5053317;28;20243;-65
2023/05/13 02:01:43;;;;;;;9.23;6.90;;;15.60;63.70;;;18.29;45.67;102049.84;5053437;28;20194;-66
2023/05/13 02:04:10;;;;;;;7.67;6.90;;;15.60;64.60;;;18.27;46.18;102046.56;5053133;28;20221;-67
2023/05/13 02:06:37;;;;;;;8.00;6.50;;;15.60;65.10;;;18.25;45.99;102045.94;5052974;28;20190;-66
2023/05/13 02:09:04;;;;;;;9.60;7.10;;;15.60;65.20;;;18.24;46.64;102046.94;5053422;28;20197;-66
2023/05/13 02:11:31;;;;;;;7.63;6.93;;;15.50;65.80;;;18.23;46.94;102043.44;5053469;28;20251;-64
2023/05/13 02:13:59;;;;;;;7.40;6.70;;;15.50;66.50;;;18.29;47.42;102041.84;5053174;28;20210;-66
2023/05/13 02:16:26;;;;;;;8.17;7.37;;;15.60;67.00;;;18.33;47.43;102045.75;5052992;28;20726;-66
2023/05/13 02:18:53;;;;;;;7.07;6.47;;;15.70;67.00;;;18.39;47.34;102042.34;5053200;28;20218;-66
2023/05/13 02:21:20;;;;;;;11.00;7.00;;;15.70;66.70;;;18.44;47.19;102045.25;5053356;28;20200;-66
2023/05/13 02:23:47;;;;;;;7.60;6.83;;;15.80;66.60;;;18.49;46.90;102042.88;5052679;28;20220;-65
2023/05/13 02:26:14;;;;;;;8.33;7.63;;;15.80;66.00;;;18.54;46.83;102040.41;5053340;28;20685;-66
2023/05/13 02:28:41;;;;;;;9.20;6.87;;;15.90;65.90;;;18.56;46.51;102038.41;5052910;28;20189;-67
2023/05/13 02:31:09;;;;;;;9.87;8.87;;;15.90;65.70;;;18.54;46.40;102045.75;5051902;28;20193;-65
2023/05/13 02:33:38;;;;;;;7.77;7.03;;;15.90;65.60;;;18.51;46.35;102040.84;5052761;28;20178;-66
2023/05/13 02:36:05;;;;;;;8.60;7.70;;;15.80;65.50;;;18.46;46.29;102035.25;5053144;28;20197;-66
2023/05/13 02:38:32;;;;;;;8.27;7.17;;;15.80;65.60;;;18.42;46.56;102043.81;5053029;28;20213;-66
2023/05/13 02:41:00;;;;;;;7.87;7.13;;;15.70;65.80;;;18.38;46.51;102045.19;5051689;28;20202;-66
2023/05/13 02:43:27;;;;;;;8.43;7.60;;;15.70;65.90;;;18.34;46.93;102042.09;5053159;28;20244;-66
2023/05/13 02:45:54;;;;;;;7.97;7.27;;;15.70;66.30;;;18.31;46.68;102047.81;5052817;28;20283;-66
2023/05/13 02:48:22;;;;;;;7.60;6.80;;;15.60;66.00;;;18.23;46.42;102039.97;5052889;28;20677;-66
2023/05/13 02:50:49;;;;;;;7.43;6.73;;;15.60;66.00;;;18.15;46.43;102040.94;5052798;28;20689;-66
2023/05/13 02:53:16;;;;;;;8.07;7.27;;;15.50;66.00;;;18.09;46.75;102036.34;5052932;28;20658;-66
2023/05/13 02:55:43;;;;;;;9.17;7.40;;;15.40;66.30;;;18.06;47.27;102041.25;5053200;28;20340;-66
2023/05/13 02:58:10;;;;;;;11.90;7.67;;;15.40;67.10;;;18.02;47.38;102037.28;5052745;28;20217;-66
2023/05/13 03:00:37;;;;;;;8.27;7.60;;;15.30;67.50;;;18.02;47.55;102045.28;5051742;28;20236;-66
2023/05/13 03:03:04;;;;;;;8.87;7.97;;;15.30;67.50;;;18.04;47.75;102043.28;5055259;28;20269;-66
2023/05/13 03:05:32;;;;;;;7.50;6.73;;;15.30;67.80;;;18.02;47.70;102034.63;5056858;28;20206;-66
2023/05/13 03:07:59;;;;;;;7.90;7.00;;;15.30;68.00;;;18.04;48.05;102037.94;5056192;28;20190;-66
2023/05/13 03:10:27;;;;;;;7.90;7.30;;;15.30;68.10;;;18.07;47.96;102032.22;5055511;28;20193;-66
2023/05/13 03:12:54;;;;;;;8.17;7.37;;;15.40;68.30;;;18.10;47.65;102043.34;5056657;28;20198;-66
2023/05/13 03:15:21;;;;;;;7.63;6.80;;;15.40;67.70;;;18.11;47.62;102036.16;5056419;28;20222;-66
2023/05/13 03:17:48;;;;;;;9.20;7.27;;;15.40;67.60;;;18.08;47.83;102039.22;5056451;28;20275;-66
2023/05/13 03:20:15;;;;;;;8.63;7.47;;;15.40;68.00;;;18.08;47.77;102041.88;5056603;28;20194;-66
2023/05/13 03:22:43;;;;;;;7.63;6.93;;;15.40;67.60;;;18.08;47.62;102044.53;5056197;28;20194;-66
2023/05/13 03:25:10;;;;;;;9.03;7.33;;;15.40;67.70;;;18.06;47.65;102043.91;5055834;28;20218;-66
2023/05/13 03:27:37;;;;;;;9.80;6.63;;;15.40;67.80;;;18.06;47.52;102041.25;5056588;28;20666;-66
2023/05/13 03:30:06;;;;;;;10.10;7.37;;;15.30;67.70;;;18.03;47.53;102041.63;5056100;28;20204;-66
2023/05/13 03:32:34;;;;;;;8.10;7.23;;;15.30;67.50;;;17.97;47.30;102045.06;5056123;28;20190;-66
2023/05/13 03:35:01;;;;;;;8.63;7.43;;;15.30;67.60;;;17.91;48.06;102043.13;5054734;28;20682;-67
2023/05/13 03:37:28;;;;;;;10.97;8.10;;;15.20;68.20;;;17.91;47.92;102040.47;5054878;28;20226;-66
2023/05/13 03:39:56;;;;;;;10.00;7.57;;;15.20;68.30;;;17.93;48.12;102035.78;5054761;28;20201;-66
2023/05/13 03:42:23;;;;;;;8.53;7.73;;;15.20;68.30;;;17.92;47.97;102034.16;5055740;28;20202;-65
2023/05/13 03:44:50;;;;;;;8.90;8.00;;;15.20;68.20;;;17.89;47.92;102038.03;5055746;28;20213;-66
2023/05/13 03:47:17;;;;;;;8.10;7.40;;;15.20;68.10;;;17.88;47.85;102039.03;5056180;28;20488;-66
2023/05/13 03:49:44;;;;;;;7.87;7.10;;;15.20;68.10;;;17.85;47.66;102043.91;5055933;28;20197;-65
2023/05/13 03:52:11;;;;;;;7.73;6.93;;;15.10;68.10;;;17.84;48.25;102047.59;5056077;28;20194;-66
2023/05/13 03:54:39;;;;;;;8.87;8.00;;;15.10;68.50;;;17.83;47.96;102041.44;5055567;28;20271;-66
2023/05/13 03:57:08;;;;;;;8.33;7.53;;;15.10;68.50;;;17.84;48.44;102043.09;5055782;28;20613;-66
2023/05/13 03:59:35;;;;;;;9.63;8.07;;;15.10;69.10;;;17.87;48.21;102049.88;5055881;28;20642;-66
2023/05/13 04:02:01;;;;;;;12.37;8.13;;;15.20;68.80;;;17.88;48.17;102047.00;5055769;28;20194;-66
2023/05/13 04:04:29;;;;;;;8.90;7.97;;;15.20;68.30;;;17.84;47.77;102052.91;5055462;28;20617;-66
2023/05/13 04:06:56;;;;;;;8.37;7.67;;;15.10;67.90;;;17.75;47.81;102049.56;5055124;28;20217;-66
2023/05/13 04:09:22;;;;;;;8.60;7.53;;;15.10;68.40;;;17.72;48.47;102057.91;5055801;28;20247;-66
2023/05/13 04:11:49;;;;;;;9.00;8.03;;;15.00;69.10;;;17.74;48.50;102057.72;5055575;28;20194;-67
2023/05/13 04:14:18;;;;;;;8.10;7.30;;;15.10;69.40;;;17.76;48.35;102063.72;5055252;28;20221;-65
2023/05/13 04:16:45;;;;;;;9.03;8.13;;;15.00;69.20;;;17.78;48.30;102061.66;5055280;28;20190;-66
2023/05/13 04:19:12;;;;;;;9.87;7.73;;;15.10;68.80;;;17.76;48.22;102071.69;5055491;28;20229;-66
2023/05/13 04:21:39;;;;;;;7.53;6.93;;;15.10;69.10;;;17.73;47.92;102064.06;5055502;28;20193;-65
2023/05/13 04:24:06;;;;;;;8.60;7.80;;;15.00;68.30;;;17.69;48.09;102076.94;5055144;28;20213;-64
2023/05/13 04:26:33;;;;;;;11.23;9.97;;;15.00;68.40;;;17.63;48.14;102072.38;5055315;28;20527;-65
2023/05/13 04:29:00;;;;;;;13.63;12.07;;;14.90;68.70;;;17.62;48.80;102077.84;5055364;28;20201;-65
2023/05/13 04:31:28;;;;;;;18.63;15.33;;;14.90;69.50;;;17.67;48.93;102078.13;5039761;28;20214;-64
2023/05/13 04:33:56;;;;;;;15.13;13.47;;;14.90;69.60;;;17.71;48.57;102076.75;5034611;28;20187;-64
2023/05/13 04:36:22;;;;;;;11.03;8.43;;;14.90;69.70;;;17.78;48.30;102078.44;5035020;28;20195;-66
2023/05/13 04:38:49;;;;;;;8.67;7.87;;;15.00;69.40;;;17.82;48.30;102078.91;5035475;28;20261;-66
2023/05/13 04:41:16;;;;;;;7.80;7.10;;;15.00;69.00;;;17.84;48.15;102084.88;5054379;28;20206;-66
2023/05/13 04:43:43;;;;;;;9.20;8.00;;;15.10;69.40;;;17.87;48.16;102079.19;5054806;28;20678;-66
2023/05/13 04:46:10;;;;;;;9.70;7.60;;;15.10;69.00;;;17.85;47.74;102086.53;5055154;28;20209;-66
2023/05/13 04:48:38;;;;;;;8.43;7.23;;;15.10;68.70;;;17.84;48.19;102087.53;5054764;28;20221;-68
2023/05/13 04:51:05;;;;;;;8.30;7.50;;;15.00;69.20;;;17.85;48.01;102089.19;5054614;28;20196;-67
2023/05/13 04:53:33;;;;;;;9.23;8.30;;;15.00;68.70;;;17.83;47.78;102091.25;5054772;28;20189;-67
2023/05/13 04:56:00;;;;;;;7.70;6.90;;;15.00;68.60;;;17.81;48.23;102090.56;5054470;28;20267;-66
2023/05/13 04:58:28;;;;;;;9.03;8.13;;;15.00;68.90;;;17.83;47.99;102093.91;5054647;28;20218;-65
2023/05/13 05:00:55;;;;;;;9.83;7.20;;;15.00;69.00;;;17.83;47.64;102088.56;5054492;28;20202;-65
2023/05/13 05:03:22;;;;;;;9.37;8.47;;;15.00;68.70;;;17.81;47.85;102085.25;5054207;28;20680;-65
2023/05/13 05:05:51;;;;;;;8.70;7.67;;;15.00;68.60;;;17.77;48.00;102100.78;5054958;28;20576;-65
2023/05/13 05:08:17;;;;;;;7.93;7.13;;;14.90;69.00;;;17.80;48.21;102099.59;5054305;28;20186;-65
2023/05/13 05:10:44;;;;;;;7.93;7.13;;;15.00;69.60;;;17.85;48.08;102107.84;5055503;28;20236;-65
2023/05/13 05:13:11;;;;;;;8.57;7.73;;;15.00;69.20;;;17.89;47.95;102103.78;5055098;28;20197;-66
2023/05/13 05:15:38;;;;;;;8.30;7.60;;;15.00;69.30;;;17.92;48.12;102104.25;5055103;28;20237;-66
2023/05/13 05:18:05;;;;;;;7.60;6.97;;;15.10;69.40;;;17.96;47.97;102110.00;5055023;28;20206;-66
2023/05/13 05:20:32;;;;;;;8.70;7.23;;;15.10;69.00;;;17.99;47.81;102106.97;5054758;28;20192;-65
2023/05/13 05:23:01;;;;;;;7.67;6.93;;;15.10;69.00;;;18.02;47.48;102114.56;5042036;28;20198;-66
2023/05/13 05:25:28;;;;;;;7.53;6.83;;;15.20;68.70;;;18.03;47.41;102105.56;5034466;28;20714;-68
2023/05/13 05:27:56;;;;;;;13.43;8.17;;;15.20;68.60;;;18.02;47.42;102103.91;5051048;28;20201;-65
2023/05/13 05:30:23;;;;;;;9.23;6.77;;;15.20;68.60;;;18.03;47.30;102100.25;5053769;28;20213;-66
2023/05/13 05:32:50;;;;;;;7.93;7.20;;;15.20;68.70;;;18.07;47.65;102107.66;5053938;28;20254;-67
2023/05/13 05:35:18;;;;;;;8.50;7.47;;;15.20;68.70;;;18.14;47.36;102107.72;5053862;28;20589;-67
2023/05/13 05:37:45;;;;;;;7.47;6.73;;;15.30;68.60;;;18.17;47.04;102105.50;5053634;28;20228;-65
2023/05/13 05:40:14;;;;;;;8.57;6.97;;;15.30;68.40;;;18.22;47.18;102104.94;5053129;28;20243;-66
2023/05/13 05:42:41;;;;;;;11.70;7.47;;;15.30;68.30;;;18.23;46.89;102112.75;5053140;28;20228;-65
2023/05/13 05:45:09;;;;;;;10.93;7.93;;;15.30;68.20;;;18.29;47.06;102105.81;5053584;28;20209;-66
2023/05/13 05:47:36;;;;;;;8.10;7.30;;;15.30;68.30;;;18.34;46.92;102103.41;5053330;28;20270;-66
2023/05/13 05:50:04;;;;;;;7.67;6.63;;;15.40;68.30;;;18.40;47.01;102110.63;5053665;28;20669;-66
2023/05/13 05:52:31;;;;;;;7.30;6.60;;;15.50;68.30;;;18.46;46.86;102104.59;5053867;28;20194;-66
2023/05/13 05:54:58;;;;;;;6.97;6.27;;;15.50;68.30;;;18.53;46.78;102110.78;5052258;28;20550;-66
2023/05/13 05:57:26;;;;;;;7.63;6.83;;;15.60;68.20;;;18.59;46.76;102110.00;5053396;28;20196;-66
2023/05/13 05:59:53;;;;;;;8.53;6.90;;;15.60;68.10;;;18.66;46.51;102118.09;5053601;28;20190;-66
2023/05/13 06:02:20;;;;;;;8.60;7.00;;;15.70;67.90;;;18.71;46.41;102111.13;5053278;28;20775;-66
2023/05/13 06:04:47;;;;;;;6.63;5.90;;;15.70;67.70;;;18.75;46.20;102107.06;5053440;28;20224;-66
2023/05/13 06:07:14;;;;;;;7.47;6.87;;;15.80;67.50;;;18.77;46.35;102110.38;5053493;28;20261;-66
2023/05/13 06:09:41;;;;;;;6.83;6.23;;;15.90;67.40;;;18.81;46.04;102106.28;5053331;28;20603;-67
2023/05/13 06:12:08;;;;;;;7.80;7.10;;;15.90;67.50;;;18.90;46.34;102112.28;5053063;28;20228;-66
2023/05/13 06:14:36;;;;;;;9.80;7.00;;;15.90;67.40;;;19.00;46.04;102109.25;5031954;28;20587;-67
2023/05/13 06:17:04;;;;;;;7.93;6.63;;;16.00;67.60;;;19.07;46.00;102110.13;5033254;28;20194;-65
2023/05/13 06:19:31;;;;;;;9.00;6.90;;;16.10;67.40;;;19.17;46.03;102110.59;5047583;28;20229;-67
2023/05/13 06:21:58;;;;;;;6.60;5.90;;;16.10;67.30;;;19.25;45.86;102107.78;5051940;28;20205;-65
2023/05/13 06:24:26;;;;;;;7.50;6.70;;;16.20;67.30;;;19.33;45.97;102110.28;5052862;28;20283;-64
2023/05/13 06:26:53;;;;;;;8.60;7.33;;;16.30;67.30;;;19.40;45.70;102112.00;5052804;28;20190;-65
2023/05/13 06:29:20;;;;;;;11.27;6.23;;;16.40;67.10;;;19.49;45.60;102110.78;5052911;28;20201;-66
2023/05/13 06:31:48;;;;;;;7.03;6.33;;;16.50;67.00;;;19.58;45.38;102108.78;5052843;28;20186;-67
2023/05/13 06:34:16;;;;;;;9.27;6.77;;;16.60;67.00;;;19.66;45.45;102110.47;5052354;28;20234;-66
2023/05/13 06:36:43;;;;;;;6.80;6.13;;;16.70;66.90;;;19.75;45.51;102114.59;5053266;28;20248;-65
2023/05/13 06:39:11;;;;;;;7.03;6.27;;;16.70;66.80;;;19.85;45.40;102113.19;5056721;28;20217;-65
2023/05/13 06:41:39;;;;;;;7.10;6.40;;;16.80;66.80;;;19.96;45.39;102115.28;5056787;28;20213;-67
2023/05/13 06:44:07;;;;;;;6.47;5.87;;;16.90;66.70;;;20.07;45.16;102114.69;5057393;28;20218;-65
2023/05/13 06:46:33;;;;;;;6.80;5.67;;;17.00;66.60;;;20.19;45.05;102113.06;5058510;28;20222;-66
2023/05/13 06:49:02;;;;;;;12.10;10.57;;;17.10;66.00;;;20.32;44.30;102111.47;5056849;28;20210;-65
2023/05/13 06:51:31;;;;;;;7.47;6.77;;;17.20;65.80;;;20.43;44.59;102113.50;5056840;28;20194;-65
2023/05/13 06:53:58;;;;;;;10.47;8.20;;;17.40;65.80;;;20.55;44.25;102111.88;5056348;28;20566;-68
2023/05/13 06:56:25;;;;;;;10.47;6.10;;;17.50;65.20;;;20.66;44.16;102113.91;5057285;28;20193;-67
2023/05/13 06:58:52;;;;;;;7.07;5.23;;;17.60;64.70;;;20.80;43.85;102115.56;5056736;28;20335;-67
2023/05/13 07:01:19;;;;;;;8.97;5.50;;;17.70;64.10;;;20.94;43.42;102111.84;5056788;28;20189;-67
2023/05/13 07:03:47;;;;;;;7.57;5.97;;;17.90;64.80;;;21.08;42.79;102108.13;5055009;28;20194;-65
2023/05/13 07:06:15;;;;;;;6.10;5.37;;;18.00;63.60;;;21.20;42.69;102110.97;5056635;28;20270;-65
2023/05/13 07:08:42;;;;;;;7.67;5.70;;;18.10;62.80;;;21.28;42.27;102114.25;5054711;28;20204;-66
2023/05/13 07:11:09;;;;;;;5.87;5.37;;;18.20;62.30;;;21.33;41.81;102106.41;5055988;28;20190;-67
2023/05/13 07:13:36;;;;;;;5.60;4.53;;;18.30;61.70;;;21.40;41.61;102112.56;5055738;28;20190;-67
2023/05/13 07:16:04;;;;;;;5.80;5.27;;;18.40;61.30;;;21.49;41.70;102107.75;5039083;28;20202;-66
2023/05/13 07:18:31;;;;;;;8.27;5.90;;;18.50;61.40;;;21.52;41.08;102110.84;5034465;28;20407;-66
2023/05/13 07:20:58;;;;;;;8.00;5.87;;;18.60;59.90;;;21.56;40.82;102101.34;5036566;28;20195;-66
2023/05/13 07:23:26;;;;;;;5.77;5.17;;;18.70;59.90;;;21.64;41.25;102107.50;5036110;28;20194;-65
2023/05/13 07:25:53;;;;;;;5.83;5.20;;;18.80;59.90;;;21.75;40.91;102104.16;5036240;28;20218;-66
2023/05/13 07:28:20;;;;;;;5.93;5.10;;;18.90;59.90;;;21.81;40.56;102109.47;5042393;28;20182;-66
2023/05/13 07:30:47;;;;;;;6.43;4.93;;;19.00;59.00;;;21.89;40.53;102113.81;5055707;28;20244;-66
2023/05/13 07:33:14;;;;;;;7.37;6.10;;;19.10;58.80;;;21.98;40.24;102105.28;5055468;28;20296;-67
2023/05/13 07:35:41;;;;;;;7.30;5.50;;;19.20;58.80;;;22.11;40.00;102107.03;5055663;28;20689;-67
2023/05/13 07:38:10;;;;;;;6.57;5.93;;;19.30;58.20;;;22.20;39.85;102103.09;5055360;28;20209;-67
2023/05/13 07:40:38;;;;;;;5.83;5.20;;;19.40;58.40;;;22.31;39.91;102102.38;5054161;28;20194;-67
2023/05/13 07:43:05;;;;;;;6.47;5.00;;;19.50;58.20;;;22.47;39.62;102109.88;5055339;28;20237;-66
2023/05/13 07:45:32;;;;;;;9.63;5.70;;;19.60;58.00;;;22.58;39.46;102103.78;5055003;28;20244;-67
2023/05/13 07:47:59;;;;;;;6.63;5.10;;;19.70;57.90;;;22.70;39.43;102103.94;5054862;28;20194;-65
2023/05/13 07:50:26;;;;;;;9.03;8.23;;;19.80;57.60;;;22.86;39.21;102109.56;5055226;28;20186;-66
2023/05/13 07:52:53;;;;;;;6.13;5.50;;;19.90;57.80;;;23.49;38.77;102106.59;5054572;28;20236;-66
2023/05/13 07:55:20;;;;;;;8.90;7.53;;;20.10;58.10;;;24.56;36.93;102105.63;5054748;28;20206;-67
2023/05/13 07:57:49;;;;;;;6.33;5.70;;;20.40;58.10;;;25.81;36.11;102101.34;5053648;28;20289;-67
2023/05/13 08:00:16;;;;;;;6.10;4.30;;;21.00;57.90;;;27.03;34.39;102099.59;5054804;28;20243;-67
2023/05/13 08:02:43;;;;;;;5.77;5.00;;;21.70;57.30;;;28.34;32.81;102104.56;5055034;28;20200;-67
2023/05/13 08:05:11;;;;;;;5.93;4.47;;;22.40;56.30;;;29.65;30.23;102099.84;5053546;28;20700;-67
2023/05/13 08:07:38;;;;;;;5.13;4.63;;;23.20;53.40;;;30.76;28.46;102098.00;5053845;28;20204;-67
2023/05/13 08:10:06;;;;;;;6.60;5.27;;;24.10;51.70;;;31.88;27.08;102101.88;5054243;28;20546;-67
2023/05/13 08:12:33;;;;;;;9.43;4.60;;;24.90;49.90;;;32.78;25.83;102104.94;5037943;28;20589;-67
2023/05/13 08:15:06;;;;;;;4.97;4.57;;;25.80;47.80;;;33.47;25.13;102106.31;5052917;28;20688;-67
2023/05/13 08:17:33;;;;;;;4.77;4.37;;;26.60;44.80;;;34.36;24.31;102105.19;5054928;28;20273;-67
2023/05/13 08:20:01;;;;;;;4.53;3.80;;;27.30;43.70;;;35.34;22.85;102102.75;5055036;28;20739;-67
2023/05/13 08:22:28;;;;;;;5.33;4.83;;;28.00;42.40;;;36.11;21.65;102099.91;5054654;28;20220;-67
2023/05/13 08:24:55;;;;;;;5.83;4.40;;;28.80;40.00;;;36.87;21.63;102108.84;5053999;28;20214;-67
2023/05/13 08:27:22;;;;;;;5.13;4.63;;;29.50;39.00;;;37.50;20.31;102105.63;5054589;28;20241;-67
2023/05/13 08:29:48;;;;;;;4.83;4.43;;;30.10;35.70;;;37.88;19.64;102103.88;5049712;28;20252;-67
2023/05/13 08:32:17;;;;;;;4.93;4.53;;;30.70;34.60;;;38.39;19.23;102102.97;5034736;28;20602;-67
2023/05/13 08:34:44;;;;;;;4.90;4.38;;;31.20;33.80;;;38.74;18.80;102104.47;5034377;28;20210;-68
2023/05/13 08:37:11;;;;;;;5.05;4.53;;;31.60;32.40;;;39.19;18.16;102107.50;5034559;28;20194;-67
2023/05/13 08:39:38;;;;;;;4.70;4.30;;;32.00;31.90;;;39.57;18.15;102097.16;5040021;28;20279;-67
2023/05/13 08:42:07;;;;;;;7.38;4.43;;;32.40;31.60;;;39.92;18.07;102098.47;5054114;28;20214;-67
2023/05/13 08:44:41;;;;;;;5.70;4.75;;;32.80;30.00;;;40.10;16.91;102101.91;5053946;28;20332;-67
2023/05/13 08:47:21;;;;;;;5.38;4.90;;;33.00;28.50;;;40.31;17.00;102096.31;5054588;28;20178;-68
2023/05/13 08:49:49;;;;;;;5.85;4.93;;;33.30;28.00;;;40.27;16.34;102084.34;5054096;28;20639;-71
2023/05/13 08:52:18;;;;;;;6.93;4.70;;;33.40;28.00;;;40.30;16.73;102095.50;5054170;28;20186;-67
2023/05/13 08:54:46;;;;;;;7.07;4.82;;;33.50;27.40;;;40.32;16.45;102095.16;5053360;28;20594;-66
2023/05/13 08:57:13;;;;;;;5.22;4.82;;;33.60;27.20;;;40.67;16.12;102093.59;5053951;28;20194;-66
2023/05/13 08:59:40;;;;;;;5.45;4.75;;;33.80;27.60;;;41.14;16.41;102091.16;5052737;28;20254;-66
2023/05/13 09:02:09;;;;;;;7.55;4.95;;;34.00;27.40;;;41.45;15.62;102083.03;5053557;28;20277;-66
2023/05/13 09:04:40;;;;;;;4.75;4.20;;;34.20;26.60;;;41.85;15.61;102077.47;5053049;28;20616;-66
2023/05/13 09:07:08;;;;;;;4.82;4.18;;;34.40;27.00;;;42.41;15.09;102087.28;5048414;28;20187;-66
2023/05/13 09:09:35;;;;;;;5.32;3.80;;;34.70;26.50;;;42.85;14.63;102076.09;5033716;28;20191;-66
2023/05/13 09:12:03;;;;;;;5.20;4.65;;;35.10;26.40;;;43.23;14.23;102080.91;5033520;28;20206;-66
2023/05/13 09:14:33;;;;;;;4.68;4.25;;;35.30;25.50;;;43.58;14.20;102084.44;5052298;28;20214;-66
2023/05/13 09:17:01;;;;;;;5.03;4.07;;;35.60;25.10;;;43.91;13.88;102089.50;5054295;28;20182;-67
2023/05/13 09:19:28;;;;;;;5.50;4.13;;;35.90;25.40;;;44.29;13.83;102083.88;5053759;28;20308;-66
2023/05/13 09:21:57;;;;;;;10.70;4.40;;;36.10;25.50;;;44.49;12.78;102090.97;5053980;28;20327;-67
2023/05/13 09:24:24;;;;;;;6.40;4.10;;;36.40;23.70;;;44.17;12.35;102087.63;5053870;28;20213;-67
2023/05/13 09:26:51;;;;;;;4.78;4.47;;;36.40;22.70;;;43.74;12.87;102085.22;5053414;28;20213;-67
2023/05/13 09:29:21;;;;;;;5.40;4.32;;;36.40;22.30;;;43.30;12.60;102087.47;5053301;28;20531;-67
2023/05/13 09:31:51;;;;;;;4.63;3.58;;;36.40;22.10;;;43.08;12.94;102079.81;5054345;28;20186;-66
2023/05/13 09:34:26;;;;;;;4.80;4.20;;;36.40;22.20;;;42.68;12.57;102076.47;5052169;28;20214;-67
2023/05/13 09:37:00;;;;;;;5.68;3.72;;;36.20;21.40;;;42.44;13.27;102078.25;5053578;28;20209;-68
2023/05/13 09:39:28;;;;;;;5.32;4.05;;;36.10;22.20;;;42.60;13.38;102083.03;5052786;28;20197;-67
2023/05/13 09:41:56;;;;;;;4.35;3.95;;;36.00;22.60;;;42.80;13.00;102068.03;5052632;28;20232;-67
2023/05/13 09:44:23;;;;;;;4.65;4.22;;;36.00;22.20;;;43.02;12.92;102072.94;5051715;28;20279;-67
2023/05/13 09:46:52;;;;;;;3.53;3.28;;;36.00;22.50;;;42.82;12.63;102074.03;5051534;28;20213;-66
2023/05/13 09:49:23;;;;;;;5.65;4.25;;;35.90;21.30;;;42.56;12.57;102073.81;5053144;28;20210;-66
2023/05/13 09:51:49;;;;;;;4.03;3.60;;;35.90;21.40;;;42.46;13.09;102073.16;5051668;28;20198;-67
2023/05/13 09:54:18;;;;;;;7.63;4.15;;;35.90;21.80;;;42.56;12.86;102065.50;5052603;28;20234;-67
2023/05/13 09:56:45;;;;;;;7.82;4.40;;;35.90;22.00;;;42.42;13.14;102068.69;5052996;28;20209;-67
2023/05/13 09:59:14;;;;;;;5.88;4.78;;;35.90;21.70;;;42.12;12.69;102064.78;5039164;28;20264;-68
2023/05/13 10:01:44;;;;;;;4.07;3.67;;;35.80;21.20;;;42.10;12.82;102067.91;5032939;28;20271;-68
2023/05/13 10:04:11;;;;;;;6.97;4.13;;;35.70;21.10;;;42.13;12.21;102060.81;5046585;28;20337;-67
2023/05/13 10:06:38;;;;;;;4.50;4.10;;;35.70;20.90;;;42.28;12.95;102063.63;5052234;28;20260;-68
2023/05/13 10:09:08;;;;;;;5.70;4.78;;;35.70;21.60;;;42.60;12.57;102058.09;5052673;28;20197;-66
2023/05/13 10:11:38;;;;;;;4.35;3.95;;;35.70;21.40;;;43.02;12.54;102053.53;5052312;28;20175;-66
2023/05/13 10:14:06;;;;;;;4.90;4.18;;;35.90;21.80;;;42.98;12.73;102055.44;5052294;28;20248;-67
2023/05/13 10:16:33;;;;;;;6.30;3.97;;;35.90;21.90;;;43.17;12.55;102055.47;5052742;28;20186;-66